Time;durP1;ratioP1;P1;durP2;ratioP2;P2;SDS_P1;SDS_P2;PMS_P1;PMS_P2;Temp;Humidity;BMP_temperature;BMP_pressure;BME280_temperature;BME280_humidity;BME280_pressure;Samples;Min_cycle;Max_cycle;Signal;HPM_P1;HPM_P2
2023/06/24 00:00:57;;;;;;;1999.90;999.90;;;;;;;18.04;100.00;96193.19;5064365;28;20193;-69
2023/06/24 00:03:22;;;;;;;1999.90;999.90;;;;;;;18.02;100.00;96203.09;5063923;28;20224;-69
2023/06/24 00:05:49;;;;;;;1999.90;999.90;;;;;;;18.04;100.00;96195.16;5063955;28;20224;-69
2023/06/24 00:08:22;;;;;;;1999.90;999.90;;;;;;;18.08;100.00;96195.84;5063705;28;20202;-69
2023/06/24 00:10:48;;;;;;;1999.90;999.90;;;;;;;18.05;100.00;96197.50;5064236;28;20197;-69
2023/06/24 00:13:15;;;;;;;1999.90;999.90;;;;;;;18.10;100.00;96198.97;5064177;28;20194;-68
2023/06/24 00:15:42;;;;;;;1999.90;999.90;;;;;;;18.12;100.00;96193.78;5063973;28;20216;-68
2023/06/24 00:18:09;;;;;;;1999.90;999.90;;;;;;;18.09;100.00;96194.63;5064320;28;20240;-68
2023/06/24 00:20:34;;;;;;;1999.90;999.90;;;;;;;18.03;100.00;96188.84;5063589;28;20193;-68
2023/06/24 00:22:59;;;;;;;1999.90;999.90;;;;;;;18.03;100.00;96193.63;5064398;28;20178;-68
2023/06/24 00:25:25;;;;;;;1999.90;999.90;;;;;;;18.03;100.00;96188.09;5064208;28;20205;-70
2023/06/24 00:27:51;;;;;;;1999.90;999.90;;;;;;;18.07;100.00;96188.78;5063807;28;20205;-68
2023/06/24 00:30:16;;;;;;;1999.90;999.90;;;;;;;18.04;100.00;96192.41;5064084;28;20261;-69
2023/06/24 00:32:41;;;;;;;1999.90;999.90;;;;;;;18.02;100.00;96198.34;5063601;28;20198;-69
2023/06/24 00:35:07;;;;;;;1999.90;999.90;;;;;;;17.99;100.00;96192.91;5063707;28;20201;-68
2023/06/24 00:37:32;;;;;;;1999.90;999.90;;;;;;;17.96;100.00;96182.72;5063420;28;20213;-63
2023/06/24 00:39:58;;;;;;;1999.90;999.90;;;;;;;18.00;100.00;96177.88;5063800;28;20193;-63
2023/06/24 00:42:23;;;;;;;1999.90;999.90;;;;;;;17.97;100.00;96192.56;5063505;28;20196;-64
2023/06/24 00:44:49;;;;;;;1999.90;999.90;;;;;;;17.93;100.00;96183.59;5064302;28;20197;-63
2023/06/24 00:47:15;;;;;;;1999.90;999.90;;;;;;;17.97;100.00;96184.28;5067711;28;20190;-62
2023/06/24 00:49:45;;;;;;;1999.90;999.90;;;;;;;17.97;100.00;96178.75;5067950;28;20197;-62
2023/06/24 00:52:15;;;;;;;1999.90;999.90;;;;;;;17.98;100.00;96177.53;5067449;28;20193;-63
2023/06/24 00:54:41;;;;;;;1999.90;999.90;;;;;;;17.99;100.00;96168.81;5067838;28;20208;-63
2023/06/24 00:57:06;;;;;;;1999.90;999.90;;;;;;;17.97;100.00;96173.22;5067670;28;20206;-63
2023/06/24 00:59:32;;;;;;;1999.90;999.90;;;;;;;17.94;100.00;96163.00;5067642;28;20227;-63
2023/06/24 01:02:04;;;;;;;1999.90;999.90;;;;;;;17.97;100.00;96156.63;5067696;28;20200;-63
2023/06/24 01:04:30;;;;;;;1999.90;999.90;;;;;;;17.91;100.00;96161.09;5067576;28;20197;-63
2023/06/24 01:06:56;;;;;;;1999.90;999.90;;;;;;;17.93;100.00;96167.00;5067056;28;20198;-63
2023/06/24 01:09:23;;;;;;;1999.90;999.90;;;;;;;17.94;100.00;96158.28;5067010;28;20201;-64
2023/06/24 01:11:48;;;;;;;1999.90;999.90;;;;;;;17.95;100.00;96161.81;5066966;28;20261;-61
2023/06/24 01:14:14;;;;;;;1999.90;999.90;;;;;;;17.98;100.00;96158.16;5067143;28;20232;-62
2023/06/24 01:16:51;;;;;;;1999.90;999.90;;;;;;;17.92;100.00;96159.91;5066886;28;20190;-62
2023/06/24 01:19:35;;;;;;;1999.90;999.90;;;;;;;17.94;100.00;96157.47;5066846;28;20185;-62
2023/06/24 01:22:32;;;;;;;1999.90;999.90;;;;;;;17.85;100.00;96155.31;5066982;28;20197;-63
2023/06/24 01:25:04;;;;;;;1999.90;999.90;;;;;;;17.83;100.00;96151.44;5012512;28;20208;-64
2023/06/24 01:27:41;;;;;;;1999.90;999.90;;;;;;;17.77;100.00;96158.72;5066604;28;20244;-63
2023/06/24 01:30:16;;;;;;;1999.90;999.90;;;;;;;17.73;100.00;96155.22;5066855;28;20225;-63
2023/06/24 01:32:58;;;;;;;1999.90;999.90;;;;;;;17.76;100.00;96152.38;5066484;28;20189;-63
2023/06/24 01:35:28;;;;;;;1999.90;999.90;;;;;;;17.77;100.00;96147.66;5067058;28;20225;-63
2023/06/24 01:37:56;;;;;;;1999.90;999.90;;;;;;;17.77;100.00;96147.66;5066824;28;20200;-63
2023/06/24 01:40:36;;;;;;;1999.90;999.90;;;;;;;17.75;100.00;96147.28;5066566;28;20196;-63
2023/06/24 01:43:04;;;;;;;1999.90;999.90;;;;;;;17.72;100.00;96156.44;5066787;28;20185;-63
2023/06/24 01:45:35;;;;;;;1999.90;999.90;;;;;;;17.61;100.00;96147.63;5066332;28;20194;-63
2023/06/24 01:48:21;;;;;;;1999.90;999.90;;;;;;;17.58;100.00;96145.72;5066889;28;20190;-63
2023/06/24 01:50:59;;;;;;;1999.90;999.90;;;;;;;17.53;100.00;96149.00;5066728;28;20166;-63
2023/06/24 01:53:27;;;;;;;1999.90;999.90;;;;;;;17.55;100.00;96143.84;5066628;28;20194;-62
2023/06/24 01:55:57;;;;;;;1999.90;999.90;;;;;;;17.40;100.00;96129.53;5065724;28;20198;-63
2023/06/24 01:58:23;;;;;;;1999.90;999.90;;;;;;;17.34;100.00;96133.22;5066017;28;20209;-62
2023/06/24 02:00:48;;;;;;;1999.90;999.90;;;;;;;17.33;100.00;96139.97;5066193;28;20194;-63
2023/06/24 02:03:15;;;;;;;1999.90;999.90;;;;;;;17.24;100.00;96140.53;5066161;28;20192;-63
2023/06/24 02:05:42;;;;;;;1999.90;999.90;;;;;;;17.25;100.00;96142.09;5066016;28;20192;-62
2023/06/24 02:08:08;;;;;;;1999.90;999.90;;;;;;;17.22;100.00;96131.91;5066189;28;20185;-63
2023/06/24 02:10:38;;;;;;;1999.90;999.90;;;;;;;17.09;100.00;96130.22;5066369;28;20189;-64
2023/06/24 02:13:04;;;;;;;1999.90;999.90;;;;;;;17.10;100.00;96126.25;5066110;28;20208;-62
2023/06/24 02:15:31;;;;;;;1999.90;999.90;;;;;;;17.06;100.00;96136.59;5065710;28;20197;-62
2023/06/24 02:17:58;;;;;;;1999.90;999.90;;;;;;;16.94;100.00;96132.53;5066292;28;20217;-63
2023/06/24 02:20:26;;;;;;;1999.90;999.90;;;;;;;16.99;100.00;96136.75;5065937;28;20197;-62
2023/06/24 02:22:53;;;;;;;1999.90;999.90;;;;;;;16.96;100.00;96132.88;5065987;28;20189;-63
2023/06/24 02:25:19;;;;;;;1999.90;999.90;;;;;;;16.94;100.00;96126.22;5065590;28;20196;-62
2023/06/24 02:27:45;;;;;;;1999.90;999.90;;;;;;;16.90;100.00;96133.78;5065592;28;20197;-63
2023/06/24 02:30:13;;;;;;;1999.90;999.90;;;;;;;16.91;100.00;96130.63;5065642;28;20197;-63
2023/06/24 02:32:38;;;;;;;1999.90;999.90;;;;;;;16.91;100.00;96132.59;5065952;28;20261;-63
2023/06/24 02:35:04;;;;;;;1999.90;999.90;;;;;;;16.88;100.00;96136.19;5065466;28;20189;-62
2023/06/24 02:37:30;;;;;;;1999.90;999.90;;;;;;;16.82;100.00;96133.16;5065848;28;20206;-64
2023/06/24 02:39:56;;;;;;;1999.90;999.90;;;;;;;16.79;100.00;96138.75;5065559;28;20197;-63
2023/06/24 02:42:21;;;;;;;1999.90;999.90;;;;;;;16.73;100.00;96135.72;5065440;28;20201;-66
2023/06/24 02:44:47;;;;;;;1999.90;999.90;;;;;;;16.75;100.00;96127.00;5065144;28;20178;-64
2023/06/24 02:47:15;;;;;;;1999.90;999.90;;;;;;;16.69;100.00;96134.22;5065738;28;20225;-64
2023/06/24 02:49:42;;;;;;;1999.90;999.90;;;;;;;16.67;100.00;96131.13;5065347;28;20190;-63
2023/06/24 02:52:08;;;;;;;1999.90;999.90;;;;;;;16.76;100.00;96131.31;5065054;28;20194;-64
2023/06/24 02:54:34;;;;;;;1999.90;999.90;;;;;;;16.73;100.00;96143.19;5065170;28;20198;-64
2023/06/24 02:57:00;;;;;;;1999.90;999.90;;;;;;;16.63;100.00;96146.94;5065400;28;20205;-64
2023/06/24 02:59:26;;;;;;;1999.90;999.90;;;;;;;16.70;100.00;96146.81;5065084;28;20217;-63
2023/06/24 03:01:51;;;;;;;1999.90;999.90;;;;;;;16.64;100.00;96149.28;5064920;28;20192;-64
2023/06/24 03:04:19;;;;;;;1999.90;999.90;;;;;;;16.65;100.00;96145.34;5064846;28;20201;-65
2023/06/24 03:06:45;;;;;;;1999.90;999.90;;;;;;;16.71;100.00;96156.66;5064565;28;20186;-64
2023/06/24 03:09:11;;;;;;;1999.90;999.90;;;;;;;16.77;100.00;96157.69;5064625;28;20193;-63
2023/06/24 03:11:41;;;;;;;1999.90;999.90;;;;;;;16.70;100.00;96160.59;5065185;28;20223;-65
2023/06/24 03:14:06;;;;;;;1999.90;999.90;;;;;;;16.68;100.00;96165.78;5064670;28;20173;-63
2023/06/24 03:16:32;;;;;;;1999.90;999.90;;;;;;;16.72;100.00;96158.19;5064977;28;20217;-63
2023/06/24 03:18:57;;;;;;;1999.90;999.90;;;;;;;16.71;100.00;96165.69;5064772;28;20196;-63
2023/06/24 03:21:28;;;;;;;1999.90;999.90;;;;;;;16.71;100.00;96164.94;5064979;28;20194;-63
2023/06/24 03:23:53;;;;;;;1999.90;999.90;;;;;;;16.75;100.00;96166.41;5065044;28;20268;-63
2023/06/24 03:26:18;;;;;;;1999.90;999.90;;;;;;;16.75;100.00;96176.66;5064339;28;20202;-62
2023/06/24 03:28:44;;;;;;;1999.90;999.90;;;;;;;16.71;100.00;96171.19;5064485;28;20190;-64
2023/06/24 03:31:09;;;;;;;1999.90;999.90;;;;;;;16.72;100.00;96169.22;5064601;28;20193;-63
2023/06/24 03:33:34;;;;;;;1999.90;999.90;;;;;;;16.76;100.00;96158.91;5064460;28;20178;-63
2023/06/24 03:36:00;;;;;;;1999.90;999.90;;;;;;;16.78;100.00;96162.78;5064295;28;20186;-62
2023/06/24 03:38:25;;;;;;;1999.90;999.90;;;;;;;16.81;100.00;96163.91;5064249;28;20244;-62
2023/06/24 03:40:51;;;;;;;1999.90;999.90;;;;;;;16.79;100.00;96171.84;5064587;28;20289;-62
2023/06/24 03:43:16;;;;;;;1999.90;999.90;;;;;;;16.88;100.00;96169.31;5064481;28;20216;-63
2023/06/24 03:45:41;;;;;;;1999.90;999.90;;;;;;;16.90;100.00;96161.38;5064820;28;20162;-62
2023/06/24 03:48:07;;;;;;;1999.90;999.90;;;;;;;16.93;100.00;96172.34;5064715;28;20201;-62
2023/06/24 03:50:32;;;;;;;1999.90;999.90;;;;;;;16.96;100.00;96170.72;5064749;28;20194;-62
2023/06/24 03:52:58;;;;;;;1999.90;999.90;;;;;;;16.99;100.00;96169.88;5064071;28;20201;-62
2023/06/24 03:55:23;;;;;;;1999.90;999.90;;;;;;;17.02;100.00;96185.56;5064042;28;20196;-62
2023/06/24 03:57:48;;;;;;;1999.90;999.90;;;;;;;17.04;100.00;96183.19;5064368;28;20205;-63
2023/06/24 04:00:17;;;;;;;1999.90;999.90;;;;;;;17.07;100.00;96185.84;5064087;28;20197;-62
2023/06/24 04:02:43;;;;;;;1999.90;999.90;;;;;;;17.06;100.00;96180.75;5063930;28;20200;-63
2023/06/24 04:05:09;;;;;;;1999.90;999.90;;;;;;;17.08;100.00;96183.88;5063805;28;20185;-63
2023/06/24 04:07:35;;;;;;;1999.90;999.90;;;;;;;17.01;100.00;96186.78;5063754;28;20197;-62
2023/06/24 04:10:02;;;;;;;1999.90;999.90;;;;;;;17.08;100.00;96192.16;5064643;28;20185;-63
2023/06/24 04:12:27;;;;;;;1999.90;999.90;;;;;;;17.11;100.00;96181.03;5064054;28;20189;-63
2023/06/24 04:14:52;;;;;;;1999.90;999.90;;;;;;;17.19;100.00;96184.44;5064176;28;20241;-62
2023/06/24 04:17:18;;;;;;;1999.90;999.90;;;;;;;17.28;100.00;96181.88;5064170;28;20209;-63
2023/06/24 04:19:43;;;;;;;1999.90;999.90;;;;;;;17.33;100.00;96187.66;5064213;28;20221;-62
2023/06/24 04:22:08;;;;;;;1999.90;999.90;;;;;;;17.36;100.00;96189.59;5064100;28;20200;-64
2023/06/24 04:24:34;;;;;;;1999.90;999.90;;;;;;;17.45;100.00;96191.78;5063611;28;20196;-63
2023/06/24 04:26:59;;;;;;;1999.90;999.90;;;;;;;17.45;100.00;96191.78;5063611;28;20205;-63
2023/06/24 04:29:26;;;;;;;1999.90;999.90;;;;;;;17.53;100.00;96187.66;5063610;28;20286;-62
2023/06/24 04:31:51;;;;;;;1999.90;999.90;;;;;;;17.62;100.00;96191.41;5063493;28;20193;-62
2023/06/24 04:34:16;;;;;;;1999.90;999.90;;;;;;;17.62;100.00;96201.66;5063766;28;20200;-62
2023/06/24 04:36:42;;;;;;;1999.90;999.90;;;;;;;17.64;100.00;96193.72;5063957;28;20207;-61
2023/06/24 04:39:07;;;;;;;1999.90;999.90;;;;;;;17.66;100.00;96196.84;5063575;28;20190;-62
2023/06/24 04:41:33;;;;;;;1999.90;999.90;;;;;;;17.66;100.00;96213.44;5063675;28;20190;-62
2023/06/24 04:43:58;;;;;;;1999.90;999.90;;;;;;;17.70;100.00;96203.06;5063594;28;20189;-62
2023/06/24 04:46:23;;;;;;;1999.90;999.90;;;;;;;17.79;100.00;96214.31;5063900;28;20177;-62
2023/06/24 04:48:49;;;;;;;1999.90;999.90;;;;;;;17.69;100.00;96212.56;5064039;28;20190;-64
2023/06/24 04:51:14;;;;;;;1999.90;999.90;;;;;;;17.72;100.00;96217.22;5063653;28;20198;-61
2023/06/24 04:53:40;;;;;;;1999.90;999.90;;;;;;;17.73;100.00;96218.78;5063635;28;20202;-61
2023/06/24 04:56:06;;;;;;;1999.90;999.90;;;;;;;17.90;100.00;96218.38;5063599;28;20194;-62
2023/06/24 04:58:31;;;;;;;1999.90;999.90;;;;;;;17.92;100.00;96215.19;5063201;28;20213;-63
2023/06/24 05:00:57;;;;;;;1999.90;999.90;;;;;;;18.04;100.00;96215.28;5063202;28;20198;-64
2023/06/24 05:03:22;;;;;;;1999.90;999.90;;;;;;;18.22;100.00;96214.88;5063056;28;20194;-64
2023/06/24 05:05:47;;;;;;;1999.90;999.90;;;;;;;18.34;100.00;96225.22;5063212;28;20253;-64
2023/06/24 05:08:13;;;;;;;1999.90;999.90;;;;;;;18.55;100.00;96219.19;5063387;28;20233;-64
2023/06/24 05:10:38;;;;;;;1999.90;999.90;;;;;;;18.62;100.00;96222.53;5063283;28;20232;-63
2023/06/24 05:13:03;;;;;;;1999.90;999.90;;;;;;;18.76;100.00;96229.72;5063398;28;20197;-62
2023/06/24 05:15:29;;;;;;;1999.90;999.90;;;;;;;18.84;100.00;96226.28;5063684;28;20201;-66
2023/06/24 05:17:56;;;;;;;1999.90;999.90;;;;;;;19.13;100.00;96227.06;5063030;28;20205;-64
2023/06/24 05:20:21;;;;;;;1999.90;999.90;;;;;;;19.42;100.00;96230.63;5063801;28;20202;-70
2023/06/24 05:22:46;;;;;;;1999.90;999.90;;;;;;;19.71;100.00;96233.38;5063630;28;20215;-71
2023/06/24 05:25:12;;;;;;;1999.90;999.90;;;;;;;19.72;100.00;96240.47;5063089;28;20201;-76
2023/06/24 05:27:37;;;;;;;1999.90;999.90;;;;;;;19.73;100.00;96239.22;5063097;28;20213;-79
2023/06/24 05:30:03;;;;;;;1999.90;999.90;;;;;;;19.76;100.00;96241.13;5063526;28;20201;-79
2023/06/24 05:32:28;;;;;;;1999.90;999.90;;;;;;;19.93;100.00;96248.13;5066344;28;20204;-78
2023/06/24 05:34:53;;;;;;;1999.90;999.90;;;;;;;19.97;100.00;96248.00;5066622;28;20204;-79
2023/06/24 05:37:19;;;;;;;1999.90;999.90;;;;;;;20.17;100.00;96248.63;5066765;28;20243;-75
2023/06/24 05:39:44;;;;;;;1999.90;999.90;;;;;;;20.34;100.00;96244.47;5066559;28;20198;-78
2023/06/24 05:42:09;;;;;;;1999.90;999.90;;;;;;;20.34;100.00;96248.03;5066691;28;20201;-81
2023/06/24 05:44:35;;;;;;;1999.90;999.90;;;;;;;20.48;100.00;96244.81;5066524;28;20194;-71
2023/06/24 05:47:00;;;;;;;1999.90;999.90;;;;;;;20.54;100.00;96240.22;5066374;28;20226;-74
2023/06/24 05:49:26;;;;;;;1999.90;999.90;;;;;;;20.95;100.00;96242.84;5066495;28;20170;-70
2023/06/24 05:51:51;;;;;;;1999.90;999.90;;;;;;;21.42;100.00;96254.63;5066820;28;20197;-71
2023/06/24 05:54:16;;;;;;;1999.90;999.90;;;;;;;21.57;100.00;96255.63;5066553;28;20230;-72
2023/06/24 05:56:42;;;;;;;1999.90;999.90;;;;;;;21.87;100.00;96252.16;5066349;28;20197;-71
2023/06/24 05:59:07;;;;;;;1999.90;999.90;;;;;;;21.74;100.00;96253.47;5066006;28;20196;-72
2023/06/24 06:01:32;;;;;;;1999.90;999.90;;;;;;;21.84;100.00;96261.41;5066082;28;20201;-73
2023/06/24 06:03:58;;;;;;;1999.90;999.90;;;;;;;21.89;100.00;96266.38;5066345;28;20193;-79
2023/06/24 06:06:23;;;;;;;1999.90;999.90;;;;;;;22.06;100.00;96264.94;5066337;28;20199;-76
2023/06/24 06:08:48;;;;;;;1999.90;999.90;;;;;;;22.40;100.00;96261.22;5066119;28;20193;-79
2023/06/24 06:11:14;;;;;;;1999.90;999.90;;;;;;;22.69;100.00;96260.84;5066342;28;20193;-73
2023/06/24 06:13:39;;;;;;;1999.90;999.90;;;;;;;22.81;100.00;96257.16;5065903;28;20197;-77
2023/06/24 06:16:05;;;;;;;1999.90;999.90;;;;;;;22.95;100.00;96262.13;5066155;28;20221;-78
2023/06/24 06:18:30;;;;;;;1999.90;999.90;;;;;;;23.07;100.00;96256.44;5065952;28;20201;-75
2023/06/24 06:20:55;;;;;;;1999.90;999.90;;;;;;;23.09;100.00;96264.31;5065793;28;20158;-76
2023/06/24 06:23:21;;;;;;;1999.90;999.90;;;;;;;22.73;100.00;96267.06;5066048;28;20220;-75
2023/06/24 06:25:46;;;;;;;1999.90;999.90;;;;;;;22.90;100.00;96259.97;5065906;28;20201;-74
2023/06/24 06:28:11;;;;;;;1999.90;999.90;;;;;;;23.08;100.00;96260.00;5066000;28;20200;-77
2023/06/24 06:30:37;;;;;;;1999.90;999.90;;;;;;;23.27;100.00;96256.75;5065985;28;20230;-65
2023/06/24 06:33:02;;;;;;;1999.90;999.90;;;;;;;23.09;100.00;96255.97;5065547;28;20189;-62
2023/06/24 06:35:28;;;;;;;1999.90;999.90;;;;;;;23.44;100.00;96260.00;5065493;28;20252;-62
2023/06/24 06:37:54;;;;;;;1999.90;999.90;;;;;;;23.51;100.00;96260.47;5065184;28;20315;-62
2023/06/24 06:40:23;;;;;;;1999.90;999.90;;;;;;;23.52;100.00;96267.59;5065450;28;20228;-62
2023/06/24 06:42:48;;;;;;;1999.90;999.90;;;;;;;23.45;100.00;96262.34;5064035;28;20194;-62
2023/06/24 06:45:14;;;;;;;1999.90;999.90;;;;;;;23.59;100.00;96266.50;5065474;28;20200;-62
2023/06/24 06:47:39;;;;;;;1999.90;999.90;;;;;;;23.93;100.00;96266.19;5065592;28;20194;-63
2023/06/24 06:50:05;;;;;;;1999.90;999.90;;;;;;;23.88;100.00;96266.75;5065073;28;20261;-63
2023/06/24 06:52:30;;;;;;;1999.90;999.90;;;;;;;24.13;100.00;96267.19;5065165;28;20193;-62
2023/06/24 06:54:56;;;;;;;1999.90;999.90;;;;;;;24.71;100.00;96266.81;5065179;28;20201;-63
2023/06/24 06:57:22;;;;;;;1999.90;999.90;;;;;;;24.54;100.00;96265.63;5065307;28;20213;-64
2023/06/24 06:59:49;;;;;;;1999.90;999.90;;;;;;;24.58;100.00;96271.84;5065057;28;20221;-64
2023/06/24 07:02:15;;;;;;;1999.90;999.90;;;;;;;24.81;100.00;96282.28;5064867;28;20189;-64
2023/06/24 07:04:40;;;;;;;1999.90;999.90;;;;;;;24.67;100.00;96271.81;5064789;28;20224;-64
2023/06/24 07:07:05;;;;;;;1999.90;999.90;;;;;;;24.58;100.00;96263.47;5064959;28;20218;-63
2023/06/24 07:09:31;;;;;;;1999.90;999.90;;;;;;;24.66;100.00;96261.88;5064689;28;20228;-64
2023/06/24 07:11:56;;;;;;;1999.90;999.90;;;;;;;25.03;100.00;96266.00;5065244;28;20265;-65
2023/06/24 07:14:21;;;;;;;1999.90;999.90;;;;;;;25.21;100.00;96260.28;5064797;28;20209;-64
2023/06/24 07:16:47;;;;;;;1999.90;999.90;;;;;;;25.00;100.00;96264.16;5064768;28;20217;-65
2023/06/24 07:19:12;;;;;;;1999.90;999.90;;;;;;;25.46;100.00;96262.59;5064744;28;20240;-64
2023/06/24 07:21:39;;;;;;;1999.90;999.90;;;;;;;25.63;97.86;96257.31;5065336;28;20198;-63
2023/06/24 07:24:04;;;;;;;1999.90;999.90;;;;;;;25.94;98.97;96266.03;5064711;28;20205;-64
2023/06/24 07:26:30;;;;;;;1999.90;999.90;;;;;;;26.18;93.15;96264.69;5064044;28;20201;-62
2023/06/24 07:28:58;;;;;;;1999.90;999.90;;;;;;;27.14;84.16;96264.38;5064724;28;20197;-64
2023/06/24 07:31:23;;;;;;;1999.90;999.90;;;;;;;27.09;79.28;96262.25;5065151;28;20204;-65
2023/06/24 07:33:49;;;;;;;1999.90;999.90;;;;;;;27.19;79.31;96263.69;5064513;28;20198;-64
2023/06/24 07:36:14;;;;;;;1999.90;999.90;;;;;;;27.05;72.49;96258.91;5064342;28;20224;-65
2023/06/24 07:38:39;;;;;;;1999.90;999.90;;;;;;;27.55;70.09;96274.34;5064259;28;20252;-65
2023/06/24 07:41:05;;;;;;;1999.90;999.90;;;;;;;27.74;68.91;96261.53;5064364;28;20189;-64
2023/06/24 07:43:30;;;;;;;1999.90;999.90;;;;;;;27.74;71.67;96261.53;5063995;28;20225;-65
2023/06/24 07:45:55;;;;;;;1999.90;999.90;;;;;;;27.36;70.52;96275.91;5064072;28;20197;-65
2023/06/24 07:48:21;;;;;;;1999.90;999.90;;;;;;;26.68;72.82;96269.09;5064090;28;20193;-65
2023/06/24 07:50:46;;;;;;;1999.90;999.90;;;;;;;26.19;71.28;96263.44;5064219;28;20213;-65
2023/06/24 07:53:12;;;;;;;1999.90;999.90;;;;;;;26.39;72.43;96268.34;5063847;28;20241;-65
2023/06/24 07:55:37;;;;;;;1999.90;999.90;;;;;;;26.66;68.12;96263.19;5064143;28;20233;-70
2023/06/24 07:58:02;;;;;;;1999.90;999.90;;;;;;;26.73;74.68;96276.78;5064081;28;20237;-69
2023/06/24 08:00:28;;;;;;;1999.90;999.90;;;;;;;26.62;76.28;96271.03;5063901;28;20209;-69
2023/06/24 08:02:55;;;;;;;1999.90;999.90;;;;;;;26.36;78.40;96269.31;5063761;28;20218;-70
2023/06/24 08:05:20;;;;;;;1999.90;999.90;;;;;;;25.95;75.64;96275.94;5064069;28;20197;-69
2023/06/24 08:07:46;;;;;;;1999.90;999.90;;;;;;;25.66;77.16;96273.91;5063756;28;20201;-69
2023/06/24 08:10:11;;;;;;;1999.90;999.90;;;;;;;26.09;74.54;96273.19;5064050;28;20202;-69
2023/06/24 08:12:37;;;;;;;1999.90;999.90;;;;;;;26.18;75.64;96275.88;5064145;28;20205;-70
2023/06/24 08:15:03;;;;;;;1999.90;999.90;;;;;;;26.72;76.71;96269.66;5064039;28;20261;-69
2023/06/24 08:17:28;;;;;;;1999.90;999.90;;;;;;;27.66;72.86;96268.84;5064094;28;20206;-69
2023/06/24 08:19:53;;;;;;;1999.90;999.90;;;;;;;28.08;69.64;96269.03;5063727;28;20220;-70
2023/06/24 08:22:19;;;;;;;1999.90;999.90;;;;;;;28.75;68.10;96266.78;5063566;28;20193;-73
2023/06/24 08:24:44;;;;;;;1999.90;999.90;;;;;;;29.58;63.03;96268.81;5063822;28;20166;-71
2023/06/24 08:27:10;;;;;;;1999.90;999.90;;;;;;;30.40;57.36;96264.63;5064095;28;20201;-71
2023/06/24 08:29:35;;;;;;;1999.90;999.90;;;;;;;29.87;55.90;96265.59;5064032;28;20273;-72
2023/06/24 08:32:00;;;;;;;1999.90;999.90;;;;;;;30.28;52.11;96263.09;5063433;28;20269;-72
2023/06/24 08:34:26;;;;;;;1999.90;999.90;;;;;;;30.48;54.07;96262.84;5063477;28;20198;-69
2023/06/24 08:36:52;;;;;;;1999.90;999.90;;;;;;;30.47;51.98;96264.13;5063330;28;20205;-70
2023/06/24 08:39:17;;;;;;;1999.90;999.90;;;;;;;29.33;55.07;96254.88;5063637;28;20201;-71
2023/06/24 08:41:42;;;;;;;1999.90;999.90;;;;;;;27.51;65.12;96256.94;5063673;28;20197;-68
2023/06/24 08:44:08;;;;;;;1999.90;999.90;;;;;;;26.96;66.11;96250.63;5063917;28;20209;-71
2023/06/24 08:46:35;;;;;;;1999.90;999.90;;;;;;;27.17;67.28;96251.41;5063490;28;20190;-74
2023/06/24 08:49:23;;;;;;;1999.90;999.90;;;;;;;29.42;59.21;96260.28;5063628;28;20186;-75
2023/06/24 08:51:54;;;;;;;1999.90;999.90;;;;;;;30.33;51.20;96262.31;5063320;28;20180;-76
2023/06/24 08:54:21;;;;;;;1999.90;999.90;;;;;;;28.25;59.46;96264.34;5063589;28;20272;-75
2023/06/24 08:56:47;;;;;;;1999.90;999.90;;;;;;;27.60;64.41;96265.22;5062973;28;20198;-68
2023/06/24 08:59:12;;;;;;;1999.90;999.90;;;;;;;28.89;60.17;96258.22;5063593;28;20212;-69
2023/06/24 09:01:38;;;;;;;1999.90;999.90;;;;;;;28.68;57.89;96256.00;5063228;28;20198;-68
2023/06/24 09:04:04;;;;;;;1999.90;999.90;;;;;;;27.02;65.22;96257.06;5063587;28;20198;-65
2023/06/24 09:06:31;;;;;;;1999.90;999.90;;;;;;;27.19;67.16;96263.69;5065257;28;20219;-64
2023/06/24 09:08:57;;;;;;;1999.90;999.90;;;;;;;27.28;67.58;96255.13;5066922;28;20276;-65
2023/06/24 09:11:23;;;;;;;1999.90;999.90;;;;;;;28.64;61.69;96261.88;5067207;28;20194;-65
2023/06/24 09:13:54;;;;;;;1999.90;999.90;;;;;;;28.31;61.65;96267.22;5067158;28;20190;-65
2023/06/24 09:16:19;;;;;;;1999.90;999.90;;;;;;;26.99;63.89;96263.66;5066890;28;20186;-66
2023/06/24 09:18:49;;;;;;;1999.90;999.90;;;;;;;26.57;68.47;96256.91;5066817;28;20205;-65
2023/06/24 09:21:25;;;;;;;1999.90;999.90;;;;;;;27.32;66.21;96260.53;5067065;28;20190;-65
2023/06/24 09:23:58;;;;;;;1999.90;999.90;;;;;;;28.78;59.63;96254.53;5067109;28;20217;-65
2023/06/24 09:26:25;;;;;;;1999.90;999.90;;;;;;;28.58;61.42;96254.69;5066814;28;20206;-65
2023/06/24 09:28:50;;;;;;;1999.90;999.90;;;;;;;27.65;66.45;96244.09;5066701;28;20221;-65
2023/06/24 09:31:17;;;;;;;1999.90;999.90;;;;;;;28.22;66.49;96245.69;5066731;28;20200;-65
2023/06/24 09:33:43;;;;;;;1999.90;999.90;;;;;;;28.42;64.21;96244.03;5066494;28;20202;-65
2023/06/24 09:36:11;;;;;;;1999.90;999.90;;;;;;;27.40;67.06;96247.63;5066372;28;20194;-65
2023/06/24 09:38:41;;;;;;;1999.90;999.90;;;;;;;27.07;70.36;96247.97;5066446;28;20232;-64
2023/06/24 09:41:08;;;;;;;1999.90;999.90;;;;;;;27.29;71.39;96239.06;5066708;28;20193;-65
2023/06/24 09:43:35;;;;;;;1999.90;999.90;;;;;;;29.48;61.33;96232.91;5067037;28;20170;-65
2023/06/24 09:46:02;;;;;;;1999.90;999.90;;;;;;;30.72;54.66;96243.34;5066583;28;20197;-65
2023/06/24 09:48:27;;;;;;;1999.90;999.90;;;;;;;29.48;55.64;96238.53;5066351;28;20198;-65
2023/06/24 09:50:58;;;;;;;1999.90;999.90;;;;;;;28.26;61.17;96237.78;5066257;28;20197;-65
2023/06/24 09:53:24;;;;;;;1999.90;999.90;;;;;;;27.72;66.63;96235.22;5066600;28;20236;-65
2023/06/24 09:55:50;;;;;;;1999.90;999.90;;;;;;;27.31;65.88;96228.16;5066282;28;20193;-65
2023/06/24 09:58:19;;;;;;;1999.90;999.90;;;;;;;26.84;68.87;96223.69;5066219;28;20289;-65
2023/06/24 10:00:44;;;;;;;1999.90;999.90;;;;;;;26.18;72.77;96225.47;5066206;28;20185;-65
2023/06/24 10:03:10;;;;;;;1999.90;999.90;;;;;;;25.94;74.57;96227.59;5066647;28;20193;-65
2023/06/24 10:05:36;;;;;;;1999.90;999.90;;;;;;;26.96;66.26;96222.56;5066441;28;20182;-67
2023/06/24 10:08:05;;;;;;;1999.90;999.90;;;;;;;28.20;62.40;96216.53;5066065;28;20193;-66
2023/06/24 10:10:31;;;;;;;1999.90;999.90;;;;;;;28.16;60.95;96216.75;5065893;28;20177;-65
2023/06/24 10:12:57;;;;;;;1999.90;999.90;;;;;;;27.78;64.68;96214.34;5065991;28;20194;-65
2023/06/24 10:15:22;;;;;;;1999.90;999.90;;;;;;;27.26;67.00;96212.00;5066451;28;20202;-65
2023/06/24 10:17:48;;;;;;;1999.90;999.90;;;;;;;26.68;68.50;96210.22;5065402;28;20247;-64
2023/06/24 10:20:24;;;;;;;1999.90;999.90;;;;;;;26.10;68.18;96212.34;5065996;28;20220;-64
2023/06/24 10:22:50;;;;;;;1999.90;999.90;;;;;;;26.29;67.29;96211.63;5065732;28;20197;-65
2023/06/24 10:25:16;;;;;;;1999.90;999.90;;;;;;;27.61;61.07;96204.97;5065752;28;20197;-65
2023/06/24 10:27:42;;;;;;;1999.90;999.90;;;;;;;28.81;53.35;96203.69;5065534;28;20272;-65
2023/06/24 10:30:08;;;;;;;1999.90;999.90;;;;;;;29.03;53.51;96203.06;5065724;28;20190;-65
2023/06/24 10:32:42;;;;;;;1999.90;999.90;;;;;;;28.78;55.10;96203.91;5065613;28;20193;-65
2023/06/24 10:35:21;;;;;;;1999.90;999.90;;;;;;;29.13;54.76;96199.50;5065786;28;20190;-66
2023/06/24 10:37:55;;;;;;;1999.90;999.90;;;;;;;28.52;54.58;96197.63;5065583;28;20209;-65
2023/06/24 10:40:34;;;;;;;1999.90;999.90;;;;;;;28.76;57.83;96195.22;5065752;28;20198;-65
2023/06/24 10:43:00;;;;;;;1999.90;999.90;;;;;;;28.83;61.02;96198.31;5065475;28;20264;-65
2023/06/24 10:45:26;;;;;;;1999.90;999.90;;;;;;;27.88;64.23;96184.84;5065270;28;20197;-64
2023/06/24 10:47:52;;;;;;;1999.90;999.90;;;;;;;27.64;67.02;96192.75;5065245;28;20201;-65